createdAt,value
2019-03-25T00:01:52.084Z,80.35
2019-03-25T00:04:23.457Z,80.55
2019-03-25T00:06:54.789Z,81.08
2019-03-25T00:09:27.080Z,81.11
2019-03-25T00:11:58.766Z,81.35
2019-03-25T00:14:30.068Z,81.81
2019-03-25T00:17:01.643Z,82.17
2019-03-25T00:19:33.264Z,82.24
2019-03-25T00:22:04.858Z,82.52
2019-03-25T00:24:38.930Z,82.72
2019-03-25T00:27:09.736Z,82.59
2019-03-25T00:29:41.006Z,82.70
2019-03-25T00:32:12.318Z,82.70
2019-03-25T00:34:43.909Z,82.55
2019-03-25T00:37:15.882Z,82.87
2019-03-25T00:39:47.058Z,82.67
2019-03-25T00:42:18.390Z,82.88
2019-03-25T00:44:49.686Z,82.68
2019-03-25T00:47:21.106Z,82.75
2019-03-25T00:49:52.787Z,82.18
2019-03-25T00:52:24.092Z,82.13
2019-03-25T00:54:55.394Z,82.32
2019-03-25T00:57:26.758Z,82.42
2019-03-25T00:59:58.053Z,82.25
2019-03-25T01:02:29.326Z,82.17
2019-03-25T01:05:00.660Z,82.33
2019-03-25T01:07:32.155Z,82.20
2019-03-25T01:10:03.447Z,82.36
2019-03-25T01:12:34.783Z,82.80
2019-03-25T01:17:46.322Z,83.47
2019-03-25T01:20:17.627Z,83.53
2019-03-25T01:22:49.353Z,83.60
2019-03-25T01:25:21.665Z,84.04
2019-03-25T01:27:53.396Z,84.10
2019-03-25T01:30:25.720Z,83.70
2019-03-25T01:32:57.247Z,83.63
2019-03-25T01:35:28.538Z,83.25
2019-03-25T01:38:00.262Z,82.92
2019-03-25T01:40:34.462Z,82.28
2019-03-25T01:43:06.484Z,81.33
2019-03-25T01:45:38.025Z,80.68
2019-03-25T01:48:09.363Z,81.04
2019-03-25T01:50:40.757Z,80.47
2019-03-25T01:53:12.584Z,80.07
2019-03-25T01:55:44.541Z,79.11
2019-03-25T01:58:16.712Z,78.77
2019-03-25T02:00:47.975Z,78.94
2019-03-25T02:03:19.739Z,78.09
2019-03-25T02:05:51.023Z,77.97
2019-03-25T02:08:22.232Z,77.47
2019-03-25T02:10:53.860Z,77.71
2019-03-25T02:13:25.180Z,77.69
2019-03-25T02:15:56.455Z,77.59
2019-03-25T02:18:28.064Z,78.06
2019-03-25T02:20:59.364Z,78.00
2019-03-25T02:23:30.929Z,78.22
2019-03-25T02:26:02.541Z,77.58
2019-03-25T02:28:33.814Z,77.76
2019-03-25T02:31:05.409Z,78.10
2019-03-25T02:33:36.718Z,78.25
2019-03-25T02:36:08.300Z,77.58
2019-03-25T02:38:39.579Z,77.73
2019-03-25T02:41:10.890Z,77.68
2019-03-25T02:43:42.418Z,77.74
2019-03-25T02:46:14.067Z,77.79
2019-03-25T02:48:45.346Z,78.19
2019-03-25T02:51:17.505Z,77.96
2019-03-25T02:53:48.706Z,77.92
2019-03-25T02:56:20.303Z,78.33
2019-03-25T02:58:52.154Z,78.45
2019-03-25T03:01:23.439Z,78.07
2019-03-25T03:03:55.061Z,78.26
2019-03-25T03:06:26.374Z,78.30
2019-03-25T03:08:57.638Z,78.42
2019-03-25T03:11:28.978Z,78.46
2019-03-25T03:14:00.280Z,78.45
2019-03-25T03:16:31.540Z,78.76
2019-03-25T03:19:03.182Z,78.77
2019-03-25T03:21:34.863Z,78.83
2019-03-25T03:24:06.171Z,79.07
2019-03-25T03:26:37.492Z,79.13
2019-03-25T03:29:08.939Z,79.24
2019-03-25T03:31:40.281Z,79.50
2019-03-25T03:34:11.638Z,79.67
2019-03-25T03:36:43.152Z,80.09
2019-03-25T03:39:14.404Z,80.51
2019-03-25T03:41:46.770Z,80.71
2019-03-25T03:44:18.047Z,81.12
2019-03-25T03:46:49.352Z,81.19
2019-03-25T03:49:20.941Z,81.48
2019-03-25T03:51:53.932Z,81.78
2019-03-25T03:54:25.618Z,81.22
2019-03-25T03:56:58.055Z,81.08
2019-03-25T03:59:29.742Z,81.29
2019-03-25T04:02:01.303Z,81.80
2019-03-25T04:04:32.955Z,82.33
2019-03-25T04:07:04.383Z,82.60
2019-03-25T04:09:36.447Z,82.65
2019-03-25T04:12:07.850Z,82.71
2019-03-25T04:14:39.451Z,83.16
2019-03-25T04:17:11.042Z,83.93
2019-03-25T04:19:42.374Z,83.96
2019-03-25T04:22:13.660Z,83.69
2019-03-25T04:24:45.221Z,84.36
2019-03-25T04:27:17.101Z,84.70
2019-03-25T04:29:48.394Z,85.57
2019-03-25T04:32:19.931Z,86.65
2019-03-25T04:34:51.075Z,87.59
2019-03-25T04:37:23.406Z,87.92
2019-03-25T04:39:55.432Z,88.84
2019-03-25T04:42:27.075Z,89.93
2019-03-25T04:44:58.370Z,90.11
2019-03-25T04:47:29.910Z,90.46
2019-03-25T04:50:01.592Z,91.33
2019-03-25T04:52:33.211Z,91.80
2019-03-25T04:55:04.825Z,92.49
2019-03-25T04:57:36.165Z,92.91
2019-03-25T05:00:08.737Z,93.46
2019-03-25T05:02:40.015Z,93.47
2019-03-25T05:05:12.234Z,94.05
2019-03-25T05:07:43.851Z,94.66
2019-03-25T05:10:15.187Z,94.92
2019-03-25T05:12:46.620Z,94.94
2019-03-25T05:15:20.416Z,94.52
2019-03-25T05:17:51.757Z,94.49
2019-03-25T05:20:23.078Z,94.45
2019-03-25T05:22:54.387Z,93.89
2019-03-25T05:25:25.644Z,93.82
2019-03-25T05:27:57.202Z,93.93
2019-03-25T05:30:28.406Z,93.23
2019-03-25T05:32:59.918Z,93.43
2019-03-25T05:35:31.174Z,93.67
2019-03-25T05:38:02.482Z,94.01
2019-03-25T05:40:34.338Z,94.24
2019-03-25T05:43:06.050Z,94.71
2019-03-25T05:45:37.639Z,95.09
2019-03-25T05:48:09.022Z,94.81
2019-03-25T05:50:40.395Z,94.61
2019-03-25T05:53:11.930Z,94.16
2019-03-25T05:55:43.262Z,94.27
2019-03-25T05:58:14.642Z,94.11
2019-03-25T06:00:46.144Z,93.91
2019-03-25T06:03:17.807Z,94.06
2019-03-25T06:05:49.209Z,93.98
2019-03-25T06:08:20.841Z,94.14
2019-03-25T06:10:52.167Z,94.11
2019-03-25T06:13:23.611Z,94.41
2019-03-25T06:15:54.924Z,94.02
2019-03-25T06:18:26.537Z,93.63
2019-03-25T06:20:57.930Z,92.29
2019-03-25T06:23:29.332Z,92.08
2019-03-25T06:26:00.922Z,91.25
2019-03-25T06:28:32.438Z,91.24
2019-03-25T06:31:03.976Z,91.19
2019-03-25T06:33:36.061Z,91.41
2019-03-25T06:36:07.440Z,91.56
2019-03-25T06:38:39.273Z,91.31
2019-03-25T06:41:13.590Z,90.84
2019-03-25T06:43:45.253Z,90.27
2019-03-25T06:46:16.883Z,90.20
2019-03-25T06:48:48.239Z,90.19
2019-03-25T06:51:19.660Z,88.83
2019-03-25T06:53:51.254Z,86.73
2019-03-25T06:56:22.616Z,84.63
2019-03-25T06:58:54.011Z,82.97
2019-03-25T07:01:25.821Z,81.41
2019-03-25T07:03:57.098Z,81.45
2019-03-25T07:06:28.423Z,82.71
2019-03-25T07:09:00.034Z,82.94
2019-03-25T07:11:31.460Z,83.56
2019-03-25T07:14:03.155Z,83.43
2019-03-25T07:16:34.577Z,83.78
2019-03-25T07:19:05.929Z,84.25
2019-03-25T07:21:37.674Z,84.43
2019-03-25T07:24:08.948Z,84.26
2019-03-25T07:26:40.485Z,82.43
2019-03-25T07:29:11.796Z,82.31
2019-03-25T07:31:43.108Z,82.84
2019-03-25T07:34:14.505Z,84.54
2019-03-25T07:36:45.828Z,86.15
2019-03-25T07:39:17.326Z,86.76
2019-03-25T07:41:50.298Z,85.61
2019-03-25T07:44:21.598Z,85.66
2019-03-25T07:46:53.034Z,86.03
2019-03-25T07:49:24.291Z,85.42
2019-03-25T07:51:55.628Z,83.91
2019-03-25T07:54:26.801Z,81.30
2019-03-25T07:56:58.047Z,77.79
2019-03-25T07:59:29.384Z,73.88
2019-03-25T08:02:00.888Z,71.87
2019-03-25T08:04:32.132Z,70.40
2019-03-25T08:07:03.880Z,69.53
2019-03-25T08:09:36.534Z,67.99
2019-03-25T08:12:08.175Z,66.60
2019-03-25T08:14:39.787Z,65.16
2019-03-25T08:17:11.419Z,66.36
2019-03-25T08:19:42.686Z,65.25
2019-03-25T08:22:13.967Z,63.93
2019-03-25T08:24:45.279Z,64.51
2019-03-25T08:27:16.831Z,65.42
2019-03-25T08:29:48.094Z,67.50
2019-03-25T08:32:19.854Z,69.52
2019-03-25T08:34:51.435Z,69.19
2019-03-25T08:37:22.726Z,70.49
2019-03-25T08:39:54.247Z,70.43
2019-03-25T08:42:25.589Z,70.84
2019-03-25T08:44:56.897Z,71.68
2019-03-25T08:47:28.186Z,71.37
2019-03-25T08:49:59.721Z,71.62
2019-03-25T08:52:30.929Z,71.73
2019-03-25T08:55:02.210Z,72.22
2019-03-25T08:57:33.482Z,72.18
2019-03-25T09:00:05.189Z,73.09
2019-03-25T09:02:37.949Z,72.15
2019-03-25T09:05:10.075Z,67.73
2019-03-25T09:07:41.529Z,65.31
2019-03-25T09:10:13.259Z,65.09
2019-03-25T09:12:44.510Z,65.66
2019-03-25T09:15:16.253Z,63.30
2019-03-25T09:17:47.543Z,64.65
2019-03-25T09:20:19.248Z,65.42
2019-03-25T09:22:51.161Z,65.88
2019-03-25T09:25:22.932Z,62.33
2019-03-25T09:27:54.528Z,63.12
2019-03-25T09:31:19.694Z,70.38
2019-03-25T09:33:51.585Z,71.86
2019-03-25T09:36:26.036Z,70.24
2019-03-25T09:38:57.880Z,69.44
2019-03-25T09:41:29.414Z,70.78
2019-03-25T09:44:00.683Z,70.54
2019-03-25T09:46:33.258Z,68.80
2019-03-25T09:49:05.093Z,66.56
2019-03-25T09:51:37.454Z,66.53
2019-03-25T09:54:08.744Z,67.10
2019-03-25T09:56:40.017Z,67.22
2019-03-25T09:59:11.278Z,66.47
2019-03-25T10:01:42.846Z,65.11
2019-03-25T10:04:14.384Z,63.62
2019-03-25T10:06:45.655Z,60.20
2019-03-25T10:09:17.212Z,58.28
2019-03-25T10:11:48.503Z,55.30
2019-03-25T10:14:19.763Z,53.00
2019-03-25T10:16:51.087Z,53.44
2019-03-25T10:19:23.701Z,60.48
2019-03-25T10:21:54.953Z,68.17
2019-03-25T10:24:28.103Z,72.66
2019-03-25T10:26:59.700Z,77.70
2019-03-25T10:29:31.208Z,82.18
2019-03-25T10:32:02.857Z,84.88
2019-03-25T10:34:34.139Z,82.90
2019-03-25T10:37:05.521Z,83.45
2019-03-25T10:39:36.845Z,78.44
2019-03-25T10:42:08.458Z,76.01
2019-03-25T10:44:39.729Z,73.33
2019-03-25T10:47:11.131Z,70.77
2019-03-25T10:49:42.422Z,66.31
2019-03-25T10:52:13.682Z,65.29
2019-03-25T10:54:45.395Z,63.40
2019-03-25T10:57:16.714Z,59.90
2019-03-25T10:59:47.972Z,59.89
2019-03-25T11:02:19.842Z,58.20
2019-03-25T11:04:51.108Z,57.53
2019-03-25T11:07:22.524Z,57.51
2019-03-25T11:09:54.360Z,58.31
2019-03-25T11:12:25.644Z,58.12
2019-03-25T11:15:00.292Z,56.45
2019-03-25T11:17:31.759Z,55.84
2019-03-25T11:20:04.035Z,56.92
2019-03-25T11:22:35.854Z,57.62
2019-03-25T11:25:07.744Z,62.50
2019-03-25T11:27:39.337Z,66.47
2019-03-25T11:30:11.743Z,76.01
2019-03-25T11:32:43.177Z,83.32
2019-03-25T11:35:15.676Z,86.29
2019-03-25T11:37:46.966Z,90.24
2019-03-25T11:40:18.876Z,93.22
2019-03-25T11:42:50.135Z,89.56
2019-03-25T11:45:24.835Z,86.96
2019-03-25T11:47:56.168Z,86.62
2019-03-25T11:50:27.432Z,85.95
2019-03-25T11:52:58.974Z,78.33
2019-03-25T11:55:30.285Z,77.19
2019-03-25T11:58:01.566Z,76.03
2019-03-25T12:00:32.939Z,70.64
2019-03-25T12:03:04.656Z,73.53
2019-03-25T12:05:35.946Z,72.09
2019-03-25T12:08:07.229Z,73.03
2019-03-25T12:10:38.648Z,73.58
2019-03-25T12:13:09.992Z,75.93
2019-03-25T12:15:41.266Z,76.59
2019-03-25T12:18:12.580Z,79.12
2019-03-25T12:20:45.864Z,79.90
2019-03-25T12:23:25.949Z,78.43
2019-03-25T12:25:50.223Z,76.07
2019-03-25T12:28:21.495Z,72.79
2019-03-25T12:30:53.192Z,73.02
2019-03-25T12:33:24.524Z,73.35
2019-03-25T12:35:55.810Z,70.88
2019-03-25T12:38:27.659Z,70.35
2019-03-25T12:40:59.528Z,72.03
2019-03-25T12:43:30.809Z,71.51
2019-03-25T12:46:02.177Z,70.78
2019-03-25T12:48:33.565Z,68.89
2019-03-25T12:51:04.824Z,68.06
2019-03-25T12:53:36.101Z,67.07
2019-03-25T12:56:07.465Z,65.33
2019-03-25T12:58:39.000Z,66.22
2019-03-25T13:01:10.535Z,65.75
2019-03-25T13:03:41.876Z,65.56
2019-03-25T13:06:13.098Z,62.46
2019-03-25T13:08:44.365Z,60.22
2019-03-25T13:11:15.951Z,59.23
2019-03-25T13:13:47.224Z,60.69
2019-03-25T13:16:18.592Z,60.23
2019-03-25T13:18:49.954Z,60.56
2019-03-25T13:21:21.220Z,61.52
2019-03-25T13:23:52.475Z,62.50
2019-03-25T13:26:24.070Z,63.18
2019-03-25T13:29:01.794Z,64.20
2019-03-25T13:31:29.792Z,63.04
2019-03-25T13:34:01.347Z,64.48
2019-03-25T13:36:33.003Z,64.20
2019-03-25T13:39:05.796Z,64.97
2019-03-25T13:41:37.182Z,66.55
2019-03-25T13:44:08.569Z,69.36
2019-03-25T13:46:39.894Z,71.07
2019-03-25T13:49:11.148Z,73.36
2019-03-25T13:51:42.492Z,76.43
2019-03-25T13:54:13.841Z,78.88
2019-03-25T13:56:45.258Z,81.14
2019-03-25T13:59:16.604Z,85.74
2019-03-25T14:01:47.924Z,87.73
2019-03-25T14:04:19.264Z,90.54
2019-03-25T14:06:50.649Z,91.74
2019-03-25T14:09:21.858Z,93.51
2019-03-25T14:11:54.248Z,94.56
2019-03-25T14:14:25.996Z,95.82
2019-03-25T14:16:57.640Z,96.43
2019-03-25T14:19:29.430Z,97.03
2019-03-25T14:22:00.848Z,98.47
2019-03-25T14:24:32.159Z,98.44
2019-03-25T14:27:03.543Z,96.10
2019-03-25T14:29:34.898Z,98.60
2019-03-25T14:32:07.317Z,99.98
2019-03-25T14:34:44.592Z,100.00
2019-03-25T14:37:13.153Z,99.85
2019-03-25T14:39:45.004Z,99.87
2019-03-25T14:42:16.343Z,99.64
2019-03-25T14:44:47.621Z,99.71
2019-03-25T14:47:19.149Z,98.40
2019-03-25T14:49:50.502Z,100.00
2019-03-25T14:52:21.871Z,100.00
2019-03-25T14:54:53.176Z,100.00
2019-03-25T14:57:24.599Z,99.61
2019-03-25T14:59:56.068Z,98.28
2019-03-25T15:02:27.646Z,97.15
2019-03-25T15:04:59.571Z,91.67
2019-03-25T15:07:31.214Z,92.28
2019-03-25T15:10:02.522Z,92.70
2019-03-25T15:12:35.090Z,91.23
2019-03-25T15:15:07.473Z,91.12
2019-03-25T15:17:39.095Z,87.08
2019-03-25T15:20:11.176Z,88.27
2019-03-25T15:22:42.841Z,87.67
2019-03-25T15:25:16.455Z,85.55
2019-03-25T15:27:48.110Z,84.75
2019-03-25T15:30:21.012Z,85.25
2019-03-25T15:32:52.653Z,82.31
2019-03-25T15:35:24.047Z,81.71
2019-03-25T15:37:55.643Z,78.23
2019-03-25T15:40:27.414Z,78.95
2019-03-25T15:42:58.965Z,79.74
2019-03-25T15:45:30.587Z,79.70
2019-03-25T15:48:02.063Z,79.83
2019-03-25T15:50:33.951Z,80.96
2019-03-25T15:53:05.787Z,80.70
2019-03-25T15:55:37.576Z,79.74
2019-03-25T15:58:09.630Z,80.34
2019-03-25T16:00:47.480Z,81.15
2019-03-25T16:03:14.322Z,82.85
2019-03-25T16:05:46.461Z,82.59
2019-03-25T16:08:17.768Z,83.49
2019-03-25T16:10:51.570Z,84.50
2019-03-25T16:13:22.391Z,85.32
2019-03-25T16:15:53.781Z,87.31
2019-03-25T16:18:39.442Z,89.10
2019-03-25T16:21:11.335Z,89.41
2019-03-25T16:23:42.750Z,91.14
2019-03-25T16:26:14.241Z,91.05
2019-03-25T16:28:45.842Z,89.85
2019-03-25T16:31:17.240Z,90.75
2019-03-25T16:33:48.620Z,87.97
2019-03-25T16:36:20.961Z,87.19
2019-03-25T16:38:52.272Z,87.43
2019-03-25T16:41:23.720Z,87.32
2019-03-25T16:43:55.036Z,85.47
2019-03-25T16:46:26.419Z,85.33
2019-03-25T16:48:58.101Z,84.98
2019-03-25T16:51:29.438Z,86.15
2019-03-25T16:54:00.826Z,85.41
2019-03-25T16:56:33.024Z,84.84
2019-03-25T16:59:04.285Z,84.87
2019-03-25T17:01:35.582Z,86.16
2019-03-25T17:04:06.963Z,84.71
2019-03-25T17:06:38.479Z,83.61
2019-03-25T17:09:10.061Z,84.19
2019-03-25T17:11:41.434Z,82.70
2019-03-25T17:14:13.187Z,83.07
2019-03-25T17:16:44.556Z,82.46
2019-03-25T17:19:16.447Z,80.55
2019-03-25T17:21:57.628Z,79.27
2019-03-25T17:24:21.141Z,77.93
2019-03-25T17:26:52.475Z,77.27
2019-03-25T17:29:23.769Z,76.76
2019-03-25T17:31:55.092Z,75.36
2019-03-25T17:34:27.065Z,75.19
2019-03-25T17:36:58.409Z,76.20
2019-03-25T17:39:31.097Z,74.60
2019-03-25T17:42:03.059Z,73.60
2019-03-25T17:44:34.465Z,73.80
2019-03-25T17:47:06.620Z,72.37
2019-03-25T17:49:38.029Z,73.04
2019-03-25T17:52:09.365Z,73.01
2019-03-25T17:54:40.693Z,74.05
2019-03-25T17:57:12.107Z,75.88
2019-03-25T17:59:43.521Z,74.89
2019-03-25T18:02:19.451Z,75.37
2019-03-25T18:04:51.039Z,75.54
2019-03-25T18:07:22.657Z,75.95
2019-03-25T18:09:54.034Z,76.15
2019-03-25T18:12:25.891Z,76.01
2019-03-25T18:14:57.182Z,77.32
2019-03-25T18:17:28.490Z,77.13
2019-03-25T18:20:00.219Z,76.71
2019-03-25T18:22:39.495Z,78.18
2019-03-25T18:25:04.938Z,78.37
2019-03-25T18:27:36.458Z,78.34
2019-03-25T18:30:09.595Z,76.88
2019-03-25T18:32:43.745Z,76.01
2019-03-25T18:35:24.153Z,77.19
2019-03-25T18:37:55.454Z,75.87
2019-03-25T18:40:26.809Z,76.89
2019-03-25T18:42:58.456Z,76.51
2019-03-25T18:45:29.860Z,77.22
2019-03-25T18:48:01.744Z,76.87
2019-03-25T18:50:33.637Z,77.21
2019-03-25T18:53:06.292Z,76.54
2019-03-25T18:55:37.899Z,76.54
2019-03-25T18:58:09.843Z,76.94
2019-03-25T19:00:41.539Z,76.46
2019-03-25T19:03:13.127Z,77.85
2019-03-25T19:05:45.358Z,78.34
2019-03-25T19:08:17.187Z,78.00
2019-03-25T19:10:48.581Z,78.26
2019-03-25T19:13:20.324Z,78.19
2019-03-25T19:15:51.945Z,78.15
2019-03-25T19:18:23.249Z,78.50
2019-03-25T19:20:54.623Z,78.63
2019-03-25T19:23:26.404Z,79.18
2019-03-25T19:25:58.662Z,79.02
2019-03-25T19:28:30.105Z,80.08
2019-03-25T19:31:01.719Z,78.89
2019-03-25T19:33:33.258Z,79.60
2019-03-25T19:36:04.637Z,79.06
2019-03-25T19:38:35.952Z,79.87
2019-03-25T19:41:07.876Z,80.57
2019-03-25T19:43:39.697Z,80.33
2019-03-25T19:46:11.319Z,80.00
2019-03-25T19:48:42.704Z,80.48
2019-03-25T19:51:14.140Z,80.99
2019-03-25T19:53:45.816Z,80.65
2019-03-25T19:56:17.139Z,80.91
2019-03-25T19:58:48.564Z,81.55
2019-03-25T20:01:20.275Z,81.70
2019-03-25T20:03:51.736Z,81.51
2019-03-25T20:06:26.435Z,81.05
2019-03-25T20:08:56.329Z,81.59
2019-03-25T20:11:27.680Z,82.12
2019-03-25T20:13:59.951Z,82.16
2019-03-25T20:16:31.378Z,81.98
2019-03-25T20:19:03.572Z,82.11
2019-03-25T20:21:39.405Z,82.52
2019-03-25T20:24:11.790Z,82.37
2019-03-25T20:26:45.098Z,81.79
2019-03-25T20:29:16.847Z,82.62
2019-03-25T20:31:48.390Z,82.60
2019-03-25T20:34:20.620Z,82.60
2019-03-25T20:36:52.251Z,82.89
2019-03-25T20:39:24.105Z,83.20
2019-03-25T20:41:56.447Z,83.97
2019-03-25T20:44:28.418Z,83.98
2019-03-25T20:47:00.627Z,83.33
2019-03-25T20:49:32.156Z,83.83
2019-03-25T20:52:03.996Z,82.78
2019-03-25T20:54:36.555Z,83.26
2019-03-25T20:57:08.391Z,83.75
2019-03-25T20:59:40.669Z,83.19
2019-03-25T21:02:12.476Z,83.37
2019-03-25T21:04:43.925Z,83.09
2019-03-25T21:07:16.879Z,83.26
2019-03-25T21:09:49.106Z,83.49
2019-03-25T21:12:20.672Z,82.98
2019-03-25T21:14:52.391Z,82.69
2019-03-25T21:17:23.918Z,82.78
2019-03-25T21:19:55.447Z,83.47
2019-03-25T21:22:27.091Z,83.16
2019-03-25T21:24:58.823Z,83.33
2019-03-25T21:27:30.203Z,82.81
2019-03-25T21:30:02.456Z,82.98
2019-03-25T21:32:33.799Z,82.69
2019-03-25T21:35:06.151Z,83.07
2019-03-25T21:37:37.629Z,82.78
2019-03-25T21:40:09.424Z,83.60
2019-03-25T21:42:40.767Z,83.46
2019-03-25T21:45:12.431Z,84.25
2019-03-25T21:47:44.176Z,84.33
2019-03-25T21:50:15.670Z,84.53
2019-03-25T21:52:47.011Z,85.12
2019-03-25T21:55:18.721Z,85.34
2019-03-25T21:57:50.097Z,85.40
2019-03-25T22:00:22.727Z,85.62
2019-03-25T22:02:54.445Z,86.74
2019-03-25T22:05:25.709Z,86.33
2019-03-25T22:07:57.155Z,86.48
2019-03-25T22:10:28.510Z,86.66
2019-03-25T22:12:59.919Z,86.69
2019-03-25T22:15:32.449Z,86.60
2019-03-25T22:18:04.640Z,86.55
2019-03-25T22:20:36.330Z,86.67
2019-03-25T22:23:07.726Z,86.73
2019-03-25T22:25:39.095Z,87.04
2019-03-25T22:28:10.744Z,87.15
2019-03-25T22:30:42.813Z,86.78
2019-03-25T22:33:25.180Z,87.12
2019-03-25T22:35:48.509Z,87.43
2019-03-25T22:38:19.831Z,87.36
2019-03-25T22:40:51.215Z,87.60
2019-03-25T22:43:22.495Z,87.92
2019-03-25T22:45:53.886Z,87.68
2019-03-25T22:48:25.216Z,88.67
2019-03-25T22:50:57.014Z,87.82
2019-03-25T22:53:28.370Z,87.78
2019-03-25T22:55:59.717Z,87.46
2019-03-25T22:58:31.360Z,87.29
2019-03-25T23:01:05.319Z,87.74
2019-03-25T23:03:39.405Z,87.83
2019-03-25T23:06:09.598Z,87.90
2019-03-25T23:08:40.968Z,88.09
2019-03-25T23:11:13.474Z,87.68
2019-03-25T23:13:44.705Z,87.80
2019-03-25T23:16:16.052Z,88.01
2019-03-25T23:18:47.556Z,88.19
2019-03-25T23:21:18.831Z,87.86
2019-03-25T23:23:50.178Z,88.13
2019-03-25T23:26:21.496Z,87.65
2019-03-25T23:28:52.931Z,87.82
2019-03-25T23:31:24.268Z,88.03
2019-03-25T23:33:55.550Z,87.49
2019-03-25T23:36:26.854Z,87.64
2019-03-25T23:38:58.492Z,87.38
2019-03-25T23:41:29.805Z,86.84
2019-03-25T23:44:01.485Z,87.40
2019-03-25T23:46:32.809Z,87.11
2019-03-25T23:49:04.100Z,87.56
2019-03-25T23:51:35.414Z,87.16
2019-03-25T23:54:13.217Z,87.08
2019-03-25T23:56:44.989Z,87.42
2019-03-25T23:59:16.277Z,87.74
